createdAt,value
2023-05-09T00:00:53.760Z,677.00
2023-05-09T00:01:53.822Z,684.00
2023-05-09T00:02:53.786Z,685.00
2023-05-09T00:03:53.869Z,681.00
2023-05-09T00:04:53.815Z,679.00
2023-05-09T00:05:53.750Z,671.00
2023-05-09T00:06:53.803Z,675.00
2023-05-09T00:07:53.773Z,678.00
2023-05-09T00:08:53.772Z,678.00
2023-05-09T00:09:53.803Z,672.00
2023-05-09T00:10:53.838Z,669.00
2023-05-09T00:11:53.799Z,666.00
2023-05-09T00:12:53.852Z,668.00
2023-05-09T00:13:53.832Z,664.00
2023-05-09T00:14:53.832Z,673.00
2023-05-09T00:15:53.920Z,667.00
2023-05-09T00:16:53.871Z,666.00
2023-05-09T00:17:53.852Z,667.00
2023-05-09T00:18:53.858Z,664.00
2023-05-09T00:19:53.847Z,666.00
2023-05-09T00:20:53.964Z,669.00
2023-05-09T00:21:53.861Z,665.00
2023-05-09T00:22:53.888Z,664.00
2023-05-09T00:23:53.943Z,663.00
2023-05-09T00:24:53.899Z,662.00
2023-05-09T00:25:53.903Z,660.00
2023-05-09T00:26:53.873Z,663.00
2023-05-09T00:27:53.880Z,668.00
2023-05-09T00:28:53.893Z,664.00
2023-05-09T00:29:53.912Z,661.00
2023-05-09T00:30:53.880Z,662.00
2023-05-09T00:31:54.050Z,662.00
2023-05-09T00:32:53.990Z,663.00
2023-05-09T00:33:53.958Z,662.00
2023-05-09T00:34:53.904Z,660.00
2023-05-09T00:35:53.896Z,658.00
2023-05-09T00:36:53.904Z,661.00
2023-05-09T00:37:53.916Z,661.00
2023-05-09T00:38:53.945Z,658.00
2023-05-09T00:39:53.967Z,658.00
2023-05-09T00:40:53.934Z,656.00
2023-05-09T00:41:53.937Z,663.00
2023-05-09T00:42:53.959Z,662.00
2023-05-09T00:43:53.973Z,660.00
2023-05-09T00:44:53.953Z,659.00
2023-05-09T00:45:54.070Z,661.00
2023-05-09T00:46:54.009Z,659.00
2023-05-09T00:47:54.104Z,663.00
2023-05-09T00:48:54.264Z,658.00
2023-05-09T00:49:53.996Z,655.00
2023-05-09T00:50:54.076Z,658.00
2023-05-09T00:51:54.017Z,658.00
2023-05-09T00:52:54.021Z,660.00
2023-05-09T00:53:54.091Z,657.00
2023-05-09T00:54:54.094Z,655.00
2023-05-09T00:55:54.090Z,659.00
2023-05-09T00:56:54.065Z,656.00
2023-05-09T00:57:54.099Z,657.00
2023-05-09T00:58:54.102Z,657.00
2023-05-09T00:59:54.123Z,657.00
2023-05-09T01:00:54.212Z,657.00
2023-05-09T01:01:54.165Z,658.00
2023-05-09T01:02:54.193Z,655.00
2023-05-09T01:03:54.310Z,657.00
2023-05-09T01:04:54.191Z,655.00
2023-05-09T01:05:54.195Z,658.00
2023-05-09T01:06:54.203Z,656.00
2023-05-09T01:07:54.217Z,656.00
2023-05-09T01:08:54.253Z,651.00
2023-05-09T01:09:54.219Z,654.00
2023-05-09T01:10:54.229Z,655.00
2023-05-09T01:11:54.227Z,656.00
2023-05-09T01:12:54.280Z,654.00
2023-05-09T01:13:54.221Z,656.00
2023-05-09T01:14:54.237Z,650.00
2023-05-09T01:15:54.312Z,654.00
2023-05-09T01:16:54.269Z,649.00
2023-05-09T01:17:54.309Z,650.00
2023-05-09T01:18:54.294Z,655.00
2023-05-09T01:19:54.377Z,649.00
2023-05-09T01:20:54.306Z,651.00
2023-05-09T01:21:54.770Z,657.00
2023-05-09T01:22:54.316Z,649.00
2023-05-09T01:23:54.345Z,651.00
2023-05-09T01:24:54.344Z,651.00
2023-05-09T01:25:54.392Z,649.00
2023-05-09T01:26:54.361Z,653.00
2023-05-09T01:27:54.401Z,655.00
2023-05-09T01:28:54.420Z,648.00
2023-05-09T01:29:54.415Z,649.00
2023-05-09T01:30:54.432Z,645.00
2023-05-09T01:31:54.439Z,648.00
2023-05-09T01:32:54.454Z,650.00
2023-05-09T01:33:54.464Z,645.00
2023-05-09T01:34:54.482Z,650.00
2023-05-09T01:35:54.555Z,651.00
2023-05-09T01:36:54.506Z,649.00
2023-05-09T01:37:54.485Z,650.00
2023-05-09T01:38:54.506Z,647.00
2023-05-09T01:39:54.510Z,646.00
2023-05-09T01:40:54.566Z,648.00
2023-05-09T01:41:54.553Z,648.00
2023-05-09T01:42:54.566Z,644.00
2023-05-09T01:43:54.655Z,648.00
2023-05-09T01:44:54.588Z,648.00
2023-05-09T01:45:54.617Z,644.00
2023-05-09T01:46:54.733Z,647.00
2023-05-09T01:47:54.718Z,644.00
2023-05-09T01:48:54.638Z,649.00
2023-05-09T01:49:54.642Z,647.00
2023-05-09T01:50:54.668Z,649.00
2023-05-09T01:51:54.760Z,647.00
2023-05-09T01:52:54.671Z,648.00
2023-05-09T01:53:54.708Z,647.00
2023-05-09T01:54:54.693Z,645.00
2023-05-09T01:55:54.732Z,643.00
2023-05-09T01:56:54.746Z,646.00
2023-05-09T01:57:54.714Z,642.00
2023-05-09T01:58:54.741Z,646.00
2023-05-09T01:59:54.782Z,644.00
2023-05-09T02:00:54.813Z,642.00
2023-05-09T02:01:54.818Z,641.00
2023-05-09T02:02:54.880Z,646.00
2023-05-09T02:03:54.797Z,645.00
2023-05-09T02:04:54.814Z,646.00
2023-05-09T02:05:54.803Z,645.00
2023-05-09T02:06:54.863Z,647.00
2023-05-09T02:07:54.898Z,645.00
2023-05-09T02:08:54.830Z,642.00
2023-05-09T02:09:54.838Z,642.00
2023-05-09T02:10:54.895Z,644.00
2023-05-09T02:11:54.887Z,640.00
2023-05-09T02:12:54.907Z,641.00
2023-05-09T02:13:54.913Z,645.00
2023-05-09T02:14:54.895Z,643.00
2023-05-09T02:15:54.905Z,640.00
2023-05-09T02:16:54.972Z,638.00
2023-05-09T02:17:54.994Z,642.00
2023-05-09T02:18:54.963Z,640.00
2023-05-09T02:19:54.964Z,638.00
2023-05-09T02:20:55.072Z,641.00
2023-05-09T02:21:55.036Z,643.00
2023-05-09T02:22:55.000Z,637.00
2023-05-09T02:23:55.419Z,639.00
2023-05-09T02:24:55.083Z,642.00
2023-05-09T02:25:55.040Z,641.00
2023-05-09T02:26:55.059Z,641.00
2023-05-09T02:27:55.093Z,642.00
2023-05-09T02:28:55.182Z,638.00
2023-05-09T02:29:55.102Z,643.00
2023-05-09T02:30:55.129Z,640.00
2023-05-09T02:31:55.186Z,639.00
2023-05-09T02:32:55.178Z,640.00
2023-05-09T02:33:55.189Z,635.00
2023-05-09T02:34:55.176Z,635.00
2023-05-09T02:35:55.198Z,635.00
2023-05-09T02:36:55.202Z,637.00
2023-05-09T02:37:55.216Z,635.00
2023-05-09T02:38:55.245Z,637.00
2023-05-09T02:39:55.349Z,634.00
2023-05-09T02:40:55.280Z,634.00
2023-05-09T02:41:55.247Z,639.00
2023-05-09T02:42:55.252Z,633.00
2023-05-09T02:43:55.336Z,640.00
2023-05-09T02:44:55.300Z,638.00
2023-05-09T02:45:55.329Z,637.00
2023-05-09T02:46:55.325Z,634.00
2023-05-09T02:47:55.396Z,634.00
2023-05-09T02:48:55.362Z,638.00
2023-05-09T02:49:55.368Z,636.00
2023-05-09T02:50:55.426Z,632.00
2023-05-09T02:51:55.414Z,634.00
2023-05-09T02:52:55.422Z,634.00
2023-05-09T02:53:55.422Z,638.00
2023-05-09T02:54:55.425Z,635.00
2023-05-09T02:55:55.558Z,635.00
2023-05-09T02:56:55.472Z,637.00
2023-05-09T02:58:05.631Z,633.00
2023-05-09T02:58:56.484Z,634.00
2023-05-09T02:59:55.484Z,635.00
2023-05-09T03:00:55.491Z,636.00
2023-05-09T03:01:55.538Z,635.00
2023-05-09T03:02:55.492Z,637.00
2023-05-09T03:03:55.866Z,635.00
2023-05-09T03:04:55.413Z,635.00
2023-05-09T03:05:55.429Z,634.00
2023-05-09T03:06:55.483Z,635.00
2023-05-09T03:07:55.421Z,630.00
2023-05-09T03:08:55.415Z,636.00
2023-05-09T03:09:55.402Z,635.00
2023-05-09T03:10:55.428Z,635.00
2023-05-09T03:11:55.466Z,637.00
2023-05-09T03:12:55.427Z,637.00
2023-05-09T03:13:55.380Z,633.00
2023-05-09T03:14:55.357Z,632.00
2023-05-09T03:15:55.461Z,633.00
2023-05-09T03:16:55.376Z,633.00
2023-05-09T03:17:55.472Z,633.00
2023-05-09T03:18:55.836Z,634.00
2023-05-09T03:19:55.359Z,630.00
2023-05-09T03:20:55.352Z,633.00
2023-05-09T03:21:55.341Z,631.00
2023-05-09T03:22:55.369Z,631.00
2023-05-09T03:23:55.329Z,636.00
2023-05-09T03:24:55.295Z,631.00
2023-05-09T03:25:55.300Z,636.00
2023-05-09T03:26:55.330Z,629.00
2023-05-09T03:27:55.417Z,627.00
2023-05-09T03:28:55.377Z,633.00
2023-05-09T03:29:55.383Z,630.00
2023-05-09T03:30:55.407Z,634.00
2023-05-09T03:31:55.491Z,632.00
2023-05-09T03:32:55.509Z,632.00
2023-05-09T03:33:55.453Z,631.00
2023-05-09T03:34:55.492Z,630.00
2023-05-09T03:35:55.490Z,630.00
2023-05-09T03:36:55.534Z,631.00
2023-05-09T03:37:55.539Z,633.00
2023-05-09T03:38:55.486Z,632.00
2023-05-09T03:39:55.591Z,631.00
2023-05-09T03:40:55.527Z,628.00
2023-05-09T03:41:55.534Z,630.00
2023-05-09T03:42:55.561Z,631.00
2023-05-09T03:43:55.657Z,628.00
2023-05-09T03:44:55.604Z,627.00
2023-05-09T03:45:55.606Z,633.00
2023-05-09T03:46:55.700Z,630.00
2023-05-09T03:47:55.728Z,629.00
2023-05-09T03:48:55.679Z,627.00
2023-05-09T03:49:55.705Z,626.00
2023-05-09T03:50:55.701Z,625.00
2023-05-09T03:51:55.741Z,628.00
2023-05-09T03:52:55.756Z,629.00
2023-05-09T03:53:55.721Z,627.00
2023-05-09T03:54:55.760Z,628.00
2023-05-09T03:55:55.757Z,627.00
2023-05-09T03:56:55.766Z,625.00
2023-05-09T03:57:55.797Z,625.00
2023-05-09T03:58:55.827Z,629.00
2023-05-09T03:59:55.873Z,632.00
2023-05-09T04:00:55.801Z,629.00
2023-05-09T04:01:55.899Z,630.00
2023-05-09T04:02:55.897Z,624.00
2023-05-09T04:03:55.865Z,624.00
2023-05-09T04:04:55.881Z,625.00
2023-05-09T04:05:55.909Z,626.00
2023-05-09T04:06:55.902Z,624.00
2023-05-09T04:07:55.935Z,625.00
2023-05-09T04:08:55.957Z,629.00
2023-05-09T04:09:55.916Z,623.00
2023-05-09T04:10:55.951Z,626.00
2023-05-09T04:11:55.964Z,629.00
2023-05-09T04:12:55.977Z,625.00
2023-05-09T04:13:55.999Z,627.00
2023-05-09T04:14:56.010Z,626.00
2023-05-09T04:15:56.123Z,627.00
2023-05-09T04:16:56.091Z,624.00
2023-05-09T04:17:56.096Z,625.00
2023-05-09T04:18:56.025Z,629.00
2023-05-09T04:19:56.047Z,627.00
2023-05-09T04:20:56.065Z,625.00
2023-05-09T04:21:56.085Z,627.00
2023-05-09T04:22:56.098Z,623.00
2023-05-09T04:23:56.113Z,626.00
2023-05-09T04:24:56.099Z,627.00
2023-05-09T04:25:56.104Z,627.00
2023-05-09T04:26:56.117Z,627.00
2023-05-09T04:27:56.155Z,625.00
2023-05-09T04:28:56.209Z,626.00
2023-05-09T04:29:56.198Z,624.00
2023-05-09T04:30:56.285Z,624.00
2023-05-09T04:31:56.537Z,623.00
2023-05-09T04:32:56.271Z,627.00
2023-05-09T04:33:56.252Z,626.00
2023-05-09T04:34:56.296Z,624.00
2023-05-09T04:35:56.288Z,628.00
2023-05-09T04:36:56.324Z,621.00
2023-05-09T04:37:56.352Z,621.00
2023-05-09T04:38:56.361Z,619.00
2023-05-09T04:39:56.375Z,621.00
2023-05-09T04:40:56.398Z,627.00
2023-05-09T04:41:56.481Z,622.00
2023-05-09T04:42:56.437Z,623.00
2023-05-09T04:43:56.855Z,627.00
2023-05-09T04:44:56.524Z,623.00
2023-05-09T04:45:57.457Z,622.00
2023-05-09T04:46:56.510Z,622.00
2023-05-09T04:47:56.649Z,625.00
2023-05-09T04:48:56.489Z,623.00
2023-05-09T04:49:56.576Z,625.00
2023-05-09T04:50:56.523Z,620.00
2023-05-09T04:51:56.564Z,623.00
2023-05-09T04:52:56.574Z,621.00
2023-05-09T04:53:56.643Z,627.00
2023-05-09T04:54:56.607Z,622.00
2023-05-09T04:55:56.634Z,621.00
2023-05-09T04:57:06.693Z,622.00
2023-05-09T04:57:57.649Z,622.00
2023-05-09T04:58:56.588Z,623.00
2023-05-09T04:59:56.590Z,624.00
2023-05-09T05:00:56.607Z,624.00
2023-05-09T05:01:56.618Z,621.00
2023-05-09T05:02:56.609Z,622.00
2023-05-09T05:03:56.656Z,623.00
2023-05-09T05:05:10.130Z,619.00
2023-05-09T05:05:57.567Z,620.00
2023-05-09T05:06:56.532Z,621.00
2023-05-09T05:07:56.536Z,620.00
2023-05-09T05:08:56.527Z,621.00
2023-05-09T05:09:56.526Z,625.00
2023-05-09T05:10:56.501Z,623.00
2023-05-09T05:12:01.829Z,620.00
2023-05-09T05:12:57.577Z,621.00
2023-05-09T05:13:56.505Z,621.00
2023-05-09T05:14:56.483Z,621.00
2023-05-09T05:15:56.539Z,623.00
2023-05-09T05:16:56.532Z,621.00
2023-05-09T05:17:56.526Z,619.00
2023-05-09T05:18:56.448Z,619.00
2023-05-09T05:19:56.600Z,619.00
2023-05-09T05:20:56.434Z,620.00
2023-05-09T05:21:56.437Z,620.00
2023-05-09T05:22:56.464Z,622.00
2023-05-09T05:23:56.449Z,619.00
2023-05-09T05:24:56.444Z,619.00
2023-05-09T05:25:56.484Z,618.00
2023-05-09T05:26:56.403Z,614.00
2023-05-09T05:27:56.427Z,618.00
2023-05-09T05:28:56.452Z,617.00
2023-05-09T05:29:56.448Z,617.00
2023-05-09T05:30:56.415Z,620.00
2023-05-09T05:31:56.448Z,617.00
2023-05-09T05:32:56.917Z,615.00
2023-05-09T05:33:56.353Z,619.00
2023-05-09T05:34:56.410Z,616.00
2023-05-09T05:35:56.469Z,628.00
2023-05-09T05:36:56.372Z,633.00
2023-05-09T05:37:56.341Z,623.00
2023-05-09T05:38:56.335Z,607.00
2023-05-09T05:39:56.318Z,614.00
2023-05-09T05:40:56.334Z,630.00
2023-05-09T05:41:56.355Z,637.00
2023-05-09T05:42:56.370Z,633.00
2023-05-09T05:43:56.374Z,633.00
2023-05-09T05:44:56.452Z,641.00
2023-05-09T05:45:56.524Z,655.00
2023-05-09T05:46:56.394Z,652.00
2023-05-09T05:47:56.475Z,650.00
2023-05-09T05:48:56.381Z,651.00
2023-05-09T05:49:56.395Z,671.00
2023-05-09T05:50:56.421Z,665.00
2023-05-09T05:51:56.435Z,683.00
2023-05-09T05:52:56.429Z,702.00
2023-05-09T05:53:56.436Z,684.00
2023-05-09T05:54:56.473Z,718.00
2023-05-09T05:55:56.502Z,699.00
2023-05-09T05:56:56.540Z,706.00
2023-05-09T05:57:56.581Z,717.00
2023-05-09T05:58:56.631Z,729.00
2023-05-09T05:59:56.685Z,715.00
2023-05-09T06:00:56.755Z,709.00
2023-05-09T06:01:56.839Z,710.00
2023-05-09T06:02:57.359Z,714.00
2023-05-09T06:03:57.003Z,688.00
2023-05-09T06:04:56.973Z,720.00
2023-05-09T06:05:57.102Z,705.00
2023-05-09T06:06:57.078Z,687.00
2023-05-09T06:07:57.263Z,682.00
2023-05-09T06:08:57.198Z,684.00
2023-05-09T06:09:57.223Z,675.00
2023-05-09T06:10:57.249Z,650.00
2023-05-09T06:11:57.272Z,646.00
2023-05-09T06:12:57.335Z,657.00
2023-05-09T06:13:57.374Z,641.00
2023-05-09T06:14:57.368Z,630.00
2023-05-09T06:16:01.919Z,615.00
2023-05-09T06:16:58.470Z,615.00
2023-05-09T06:17:57.441Z,601.00
2023-05-09T06:18:57.395Z,590.00
2023-05-09T06:19:57.376Z,586.00
2023-05-09T06:20:57.368Z,588.00
2023-05-09T06:21:57.349Z,584.00
2023-05-09T06:22:57.377Z,577.00
2023-05-09T06:24:08.538Z,573.00
2023-05-09T06:24:58.336Z,573.00
2023-05-09T06:25:57.318Z,573.00
2023-05-09T06:26:57.505Z,577.00
2023-05-09T06:27:57.322Z,581.00
2023-05-09T06:28:57.320Z,600.00
2023-05-09T06:29:57.307Z,599.00
2023-05-09T06:30:57.402Z,600.00
2023-05-09T06:31:57.475Z,613.00
2023-05-09T06:32:57.331Z,632.00
2023-05-09T06:33:57.271Z,636.00
2023-05-09T06:34:57.407Z,645.00
2023-05-09T06:35:57.329Z,658.00
2023-05-09T06:36:57.270Z,672.00
2023-05-09T06:37:57.427Z,697.00
2023-05-09T06:38:57.583Z,656.00
2023-05-09T06:39:57.399Z,621.00
2023-05-09T06:40:57.260Z,594.00
2023-05-09T06:41:57.315Z,573.00
2023-05-09T06:42:57.444Z,572.00
2023-05-09T06:43:57.417Z,571.00
2023-05-09T06:44:57.428Z,587.00
2023-05-09T06:45:57.467Z,617.00
2023-05-09T06:46:57.465Z,600.00
2023-05-09T06:47:57.559Z,589.00
2023-05-09T06:48:57.553Z,573.00
2023-05-09T06:49:57.570Z,585.00
2023-05-09T06:50:57.622Z,592.00
2023-05-09T06:51:57.671Z,603.00
2023-05-09T06:52:57.680Z,620.00
2023-05-09T06:53:57.732Z,634.00
2023-05-09T06:54:57.758Z,638.00
2023-05-09T06:55:57.876Z,648.00
2023-05-09T06:56:57.782Z,657.00
2023-05-09T06:57:57.787Z,669.00
2023-05-09T06:58:57.825Z,683.00
2023-05-09T06:59:57.840Z,731.00
2023-05-09T07:00:57.829Z,723.00
2023-05-09T07:01:58.079Z,757.00
2023-05-09T07:02:57.914Z,792.00
2023-05-09T07:03:57.933Z,798.00
2023-05-09T07:04:57.887Z,872.00
2023-05-09T07:05:57.905Z,858.00
2023-05-09T07:06:57.841Z,909.00
2023-05-09T07:07:57.866Z,907.00
2023-05-09T07:08:57.840Z,951.00
2023-05-09T07:10:07.337Z,963.00
2023-05-09T07:10:58.832Z,964.00
2023-05-09T07:11:57.905Z,965.00
2023-05-09T07:12:57.830Z,976.00
2023-05-09T07:13:57.816Z,978.00
2023-05-09T07:14:57.797Z,984.00
2023-05-09T07:15:57.811Z,1010.00
2023-05-09T07:17:09.966Z,1003.00
2023-05-09T07:17:58.808Z,1006.00
2023-05-09T07:18:57.784Z,1018.00
2023-05-09T07:19:57.773Z,1034.00
2023-05-09T07:20:57.744Z,1062.00
2023-05-09T07:21:57.747Z,1121.00
2023-05-09T07:22:57.738Z,1116.00
2023-05-09T07:23:57.735Z,1175.00
2023-05-09T07:24:57.756Z,1209.00
2023-05-09T07:25:57.776Z,1163.00
2023-05-09T07:26:57.892Z,1211.00
2023-05-09T07:27:57.938Z,1193.00
2023-05-09T07:28:58.012Z,1238.00
2023-05-09T07:29:58.022Z,1257.00
2023-05-09T07:30:58.081Z,1289.00
2023-05-09T07:31:58.217Z,1302.00
2023-05-09T07:32:58.218Z,1311.00
2023-05-09T07:33:58.472Z,1313.00
2023-05-09T07:34:58.291Z,1328.00
2023-05-09T07:35:58.357Z,1367.00
2023-05-09T07:36:58.383Z,1377.00
2023-05-09T07:37:58.435Z,1389.00
2023-05-09T07:38:58.930Z,1387.00
2023-05-09T07:39:58.558Z,1410.00
2023-05-09T07:40:58.630Z,1429.00
2023-05-09T07:41:58.747Z,1436.00
2023-05-09T07:42:58.699Z,1419.00
2023-05-09T07:43:58.847Z,1361.00
2023-05-09T07:44:58.705Z,1334.00
2023-05-09T07:45:58.715Z,1344.00
2023-05-09T07:46:58.712Z,1336.00
2023-05-09T07:47:58.728Z,1281.00
2023-05-09T07:48:59.492Z,1326.00
2023-05-09T07:49:58.791Z,1317.00
2023-05-09T07:50:58.744Z,1329.00
2023-05-09T07:51:58.779Z,1321.00
2023-05-09T07:52:58.787Z,1314.00
2023-05-09T07:53:58.793Z,1290.00
2023-05-09T07:54:58.784Z,1301.00
2023-05-09T07:55:58.838Z,1295.00
2023-05-09T07:56:58.843Z,1294.00
2023-05-09T07:57:58.826Z,1284.00
2023-05-09T07:58:58.885Z,1294.00
2023-05-09T07:59:59.317Z,1284.00
2023-05-09T08:00:58.925Z,1284.00
2023-05-09T08:01:58.947Z,1284.00
2023-05-09T08:02:59.094Z,1284.00
2023-05-09T08:03:59.056Z,1287.00
2023-05-09T08:04:59.033Z,1290.00
2023-05-09T08:05:59.148Z,1281.00
2023-05-09T08:06:59.102Z,1270.00
2023-05-09T08:07:59.116Z,1259.00
2023-05-09T08:08:59.136Z,1269.00
2023-05-09T08:09:59.212Z,1268.00
2023-05-09T08:10:59.198Z,1262.00
2023-05-09T08:11:59.256Z,1266.00
2023-05-09T08:12:59.358Z,1247.00
2023-05-09T08:13:59.407Z,1250.00
2023-05-09T08:14:59.388Z,1249.00
2023-05-09T08:15:59.733Z,1246.00
2023-05-09T08:16:59.529Z,1236.00
2023-05-09T08:17:59.594Z,1232.00
2023-05-09T08:18:59.583Z,1227.00
2023-05-09T08:19:59.610Z,1226.00
2023-05-09T08:20:59.751Z,1225.00
2023-05-09T08:21:59.714Z,1230.00
2023-05-09T08:22:59.709Z,1223.00
2023-05-09T08:23:59.966Z,1234.00
2023-05-09T08:24:59.818Z,1235.00
2023-05-09T08:25:59.903Z,1233.00
2023-05-09T08:26:59.899Z,1241.00
2023-05-09T08:27:59.941Z,1230.00
2023-05-09T08:29:01.057Z,1216.00
2023-05-09T08:30:00.037Z,1219.00
2023-05-09T08:31:00.173Z,1194.00
2023-05-09T08:32:00.150Z,1180.00
2023-05-09T08:33:00.265Z,1185.00
2023-05-09T08:34:00.213Z,1195.00
2023-05-09T08:35:00.256Z,1184.00
2023-05-09T08:36:00.301Z,1193.00
2023-05-09T08:37:00.332Z,1193.00
2023-05-09T08:38:00.451Z,1185.00
2023-05-09T08:39:00.472Z,1179.00
2023-05-09T08:40:00.949Z,1169.00
2023-05-09T08:41:00.522Z,1188.00
2023-05-09T08:42:00.579Z,1191.00
2023-05-09T08:43:00.604Z,1200.00
2023-05-09T08:44:00.669Z,1209.00
2023-05-09T08:45:00.673Z,1222.00
2023-05-09T08:46:00.816Z,1161.00
2023-05-09T08:47:00.856Z,1170.00
2023-05-09T08:48:00.878Z,1175.00
2023-05-09T08:49:00.822Z,1152.00
2023-05-09T08:50:00.993Z,1105.00
2023-05-09T08:51:00.783Z,1148.00
2023-05-09T08:52:00.823Z,1153.00
2023-05-09T08:53:00.838Z,1140.00
2023-05-09T08:54:01.469Z,1177.00
2023-05-09T08:55:00.822Z,1195.00
2023-05-09T08:56:00.823Z,1232.00
2023-05-09T08:57:00.851Z,1225.00
2023-05-09T08:58:00.828Z,1183.00
2023-05-09T08:59:00.839Z,1184.00
2023-05-09T09:00:00.826Z,1217.00
2023-05-09T09:01:00.869Z,1214.00
2023-05-09T09:02:00.920Z,1230.00
2023-05-09T09:03:01.187Z,1100.00
2023-05-09T09:04:01.029Z,1019.00
2023-05-09T09:05:01.052Z,994.00
2023-05-09T09:06:01.044Z,1031.00
2023-05-09T09:07:01.014Z,1077.00
2023-05-09T09:08:01.002Z,1082.00
2023-05-09T09:09:01.103Z,1042.00
2023-05-09T09:10:01.117Z,1079.00
2023-05-09T09:11:01.182Z,1083.00
2023-05-09T09:12:01.254Z,1038.00
2023-05-09T09:13:01.338Z,1029.00
2023-05-09T09:14:01.469Z,1092.00
2023-05-09T09:15:01.477Z,1087.00
2023-05-09T09:16:01.503Z,1002.00
2023-05-09T09:17:01.555Z,952.00
2023-05-09T09:18:01.556Z,931.00
2023-05-09T09:19:01.992Z,937.00
2023-05-09T09:20:01.680Z,938.00
2023-05-09T09:21:01.707Z,954.00
2023-05-09T09:22:01.783Z,922.00
2023-05-09T09:23:01.796Z,898.00
2023-05-09T09:24:01.843Z,916.00
2023-05-09T09:25:01.888Z,921.00
2023-05-09T09:26:02.068Z,917.00
2023-05-09T09:27:01.982Z,896.00
2023-05-09T09:28:02.045Z,901.00
2023-05-09T09:29:02.158Z,804.00
2023-05-09T09:30:02.181Z,658.00
2023-05-09T09:31:02.305Z,667.00
2023-05-09T09:32:02.216Z,647.00
2023-05-09T09:33:02.368Z,641.00
2023-05-09T09:34:02.514Z,643.00
2023-05-09T09:35:02.324Z,653.00
2023-05-09T09:36:02.439Z,675.00
2023-05-09T09:37:02.414Z,712.00
2023-05-09T09:38:02.435Z,764.00
2023-05-09T09:39:02.505Z,790.00
2023-05-09T09:40:02.531Z,826.00
2023-05-09T09:41:02.604Z,845.00
2023-05-09T09:42:02.710Z,837.00
2023-05-09T09:43:02.638Z,800.00
2023-05-09T09:44:02.696Z,776.00
2023-05-09T09:45:02.717Z,742.00
2023-05-09T09:46:02.821Z,705.00
2023-05-09T09:47:02.817Z,676.00
2023-05-09T09:48:02.838Z,688.00
2023-05-09T09:49:02.851Z,686.00
2023-05-09T09:50:02.919Z,704.00
2023-05-09T09:51:02.948Z,670.00
2023-05-09T09:52:02.949Z,664.00
2023-05-09T09:53:03.021Z,641.00
2023-05-09T09:54:03.027Z,644.00
2023-05-09T09:55:03.011Z,661.00
2023-05-09T09:56:03.028Z,683.00
2023-05-09T09:57:03.060Z,658.00
2023-05-09T09:58:03.075Z,693.00
2023-05-09T09:59:03.131Z,723.00
2023-05-09T10:00:03.173Z,740.00
2023-05-09T10:01:03.149Z,721.00
2023-05-09T10:02:07.105Z,763.00
2023-05-09T10:03:03.242Z,764.00
2023-05-09T10:04:03.202Z,772.00
2023-05-09T10:05:03.184Z,787.00
2023-05-09T10:06:04.032Z,813.00
2023-05-09T10:07:03.138Z,839.00
2023-05-09T10:08:03.154Z,843.00
2023-05-09T10:09:03.179Z,846.00
2023-05-09T10:10:03.254Z,825.00
2023-05-09T10:11:03.118Z,819.00
2023-05-09T10:12:03.156Z,835.00
2023-05-09T10:13:04.051Z,836.00
2023-05-09T10:14:03.156Z,834.00
2023-05-09T10:15:03.126Z,828.00
2023-05-09T10:16:03.147Z,781.00
2023-05-09T10:17:03.160Z,791.00
2023-05-09T10:18:03.438Z,727.00
2023-05-09T10:19:03.180Z,756.00
2023-05-09T10:20:03.062Z,762.00
2023-05-09T10:21:03.049Z,758.00
2023-05-09T10:22:03.054Z,782.00
2023-05-09T10:23:03.071Z,708.00
2023-05-09T10:24:03.122Z,689.00
2023-05-09T10:25:03.061Z,688.00
2023-05-09T10:26:03.012Z,663.00
2023-05-09T10:27:03.029Z,663.00
2023-05-09T10:28:03.003Z,652.00
2023-05-09T10:29:03.004Z,588.00
2023-05-09T10:30:03.021Z,618.00
2023-05-09T10:31:03.085Z,613.00
2023-05-09T10:32:02.978Z,616.00
2023-05-09T10:33:03.047Z,613.00
2023-05-09T10:34:03.011Z,611.00
2023-05-09T10:35:02.968Z,631.00
2023-05-09T10:36:02.954Z,631.00
2023-05-09T10:37:02.934Z,635.00
2023-05-09T10:38:02.980Z,646.00
2023-05-09T10:39:02.919Z,614.00
2023-05-09T10:40:02.995Z,572.00
2023-05-09T10:41:02.943Z,528.00
2023-05-09T10:42:02.890Z,508.00
2023-05-09T10:43:02.907Z,526.00
2023-05-09T10:44:02.879Z,516.00
2023-05-09T10:45:02.874Z,523.00
2023-05-09T10:46:02.913Z,520.00
2023-05-09T10:47:02.981Z,528.00
2023-05-09T10:48:02.901Z,541.00
2023-05-09T10:49:02.880Z,548.00
2023-05-09T10:50:02.877Z,522.00
2023-05-09T10:51:02.904Z,521.00
2023-05-09T10:52:02.829Z,492.00
2023-05-09T10:53:02.838Z,500.00
2023-05-09T10:54:02.814Z,498.00
2023-05-09T10:55:02.850Z,500.00
2023-05-09T10:56:02.886Z,519.00
2023-05-09T10:57:02.819Z,515.00
2023-05-09T10:58:02.790Z,524.00
2023-05-09T10:59:02.778Z,537.00
2023-05-09T11:00:02.789Z,569.00
2023-05-09T11:01:02.808Z,553.00
2023-05-09T11:02:02.833Z,556.00
2023-05-09T11:03:02.810Z,558.00
2023-05-09T11:04:02.805Z,529.00
2023-05-09T11:05:02.834Z,517.00
2023-05-09T11:06:02.738Z,515.00
2023-05-09T11:07:02.748Z,503.00
2023-05-09T11:08:02.732Z,520.00
2023-05-09T11:09:02.729Z,509.00
2023-05-09T11:10:02.719Z,545.00
2023-05-09T11:11:02.741Z,525.00
2023-05-09T11:12:02.790Z,515.00
2023-05-09T11:13:02.734Z,524.00
2023-05-09T11:14:02.737Z,541.00
2023-05-09T11:15:02.730Z,534.00
2023-05-09T11:16:02.727Z,533.00
2023-05-09T11:17:02.743Z,525.00
2023-05-09T11:18:02.874Z,535.00
2023-05-09T11:19:02.886Z,544.00
2023-05-09T11:20:03.018Z,544.00
2023-05-09T11:21:02.986Z,431.00
2023-05-09T11:22:03.066Z,400.00
2023-05-09T11:23:03.063Z,455.00
2023-05-09T11:24:03.074Z,503.00
2023-05-09T11:25:03.117Z,490.00
2023-05-09T11:26:03.076Z,503.00
2023-05-09T11:27:03.116Z,501.00
2023-05-09T11:28:03.236Z,510.00
2023-05-09T11:29:03.079Z,502.00
2023-05-09T11:30:03.109Z,489.00
2023-05-09T11:31:03.129Z,500.00
2023-05-09T11:32:03.136Z,523.00
2023-05-09T11:33:03.177Z,486.00
2023-05-09T11:34:03.222Z,512.00
2023-05-09T11:35:03.240Z,563.00
2023-05-09T11:36:03.354Z,560.00
2023-05-09T11:37:03.286Z,567.00
2023-05-09T11:38:03.343Z,610.00
2023-05-09T11:39:04.131Z,594.00
2023-05-09T11:40:03.425Z,601.00
2023-05-09T11:41:03.416Z,586.00
2023-05-09T11:42:03.472Z,604.00
2023-05-09T11:43:03.553Z,607.00
2023-05-09T11:44:03.653Z,594.00
2023-05-09T11:45:03.612Z,607.00
2023-05-09T11:46:03.702Z,599.00
2023-05-09T11:47:03.712Z,597.00
2023-05-09T11:48:03.850Z,633.00
2023-05-09T11:49:03.800Z,625.00
2023-05-09T11:50:03.823Z,597.00
2023-05-09T11:51:03.925Z,560.00
2023-05-09T11:52:03.940Z,578.00
2023-05-09T11:53:03.974Z,579.00
2023-05-09T11:54:04.040Z,567.00
2023-05-09T11:55:04.046Z,554.00
2023-05-09T11:56:04.116Z,554.00
2023-05-09T11:57:04.144Z,514.00
2023-05-09T11:58:04.187Z,517.00
2023-05-09T11:59:04.245Z,532.00
2023-05-09T12:00:04.382Z,522.00
2023-05-09T12:01:04.346Z,517.00
2023-05-09T12:02:04.453Z,525.00
2023-05-09T12:03:04.585Z,501.00
2023-05-09T12:04:05.047Z,548.00
2023-05-09T12:05:04.526Z,515.00
2023-05-09T12:06:04.566Z,540.00
2023-05-09T12:07:04.613Z,502.00
2023-05-09T12:08:04.690Z,520.00
2023-05-09T12:09:04.717Z,494.00
2023-05-09T12:10:05.049Z,512.00
2023-05-09T12:11:04.853Z,551.00
2023-05-09T12:12:04.963Z,547.00
2023-05-09T12:13:04.993Z,577.00
2023-05-09T12:14:05.048Z,526.00
2023-05-09T12:15:05.571Z,509.00
2023-05-09T12:16:05.242Z,500.00
2023-05-09T12:17:05.232Z,487.00
2023-05-09T12:18:05.336Z,522.00
2023-05-09T12:19:06.046Z,500.00
2023-05-09T12:20:05.385Z,427.00
2023-05-09T12:21:05.397Z,481.00
2023-05-09T12:22:05.496Z,476.00
2023-05-09T12:23:05.541Z,548.00
2023-05-09T12:24:05.622Z,574.00
2023-05-09T12:25:05.705Z,461.00